map of IXM home
IXM - Airport
Location
City:  Madurai, Tamil Nadu, India
ICAO:VOMD
IATA:IXM

Details
Type:Airport (Aerodrome, Airfield)
Latitude:950'04"N (9.834508)
Longitude:7805'36"E (78.093378)
Datum:WGS 1984
Elevation:459 ft (140 m)
Variation:1.61W (WMM2015 magnetic declination)
0.07 annual change
Runways:2
Longest:5990 × 148 ft (1826 × 45 m), paved

Time
Time Zone:UTC+5:30
Local Time:

Weather
METAR:VOMD 220430Z 30003KT 4000 HZ FEW020 25/16 Q1016 NOSIG
TAF:VOMD 211100Z 2112/2218 04010KT 5000 HZ FEW020 SCT100
BECMG 2118/2119 VRB02KT 3000 BR
TEMPO 2200/2203 1500 BR
BECMG 2205/2207 04010KT 5000 HZ

Related Locations
Nearby:
Farthest:SEII: 11472 mi / 18462 km
Puerto Villamil [General Villamil], Isabela Island, W, EC

Find:

   beyond  
but within

Other Information
Maps:
NOTAMs:
Links:
Sources:

  
  • flag of India
  

Sectional Chart

Flight Planning
at skyvector.com

Satellite Image

Google Maps Satellite view

 

Copyright © 2004-2019 Karl L. Swartz. All rights reserved.
The Great Circle Mapper name and logo are trademarks of the Great Circle Mapper.
All other trademarks mentioned herein belong to their respective owners.
Please see credits for attibutions and further copyright information.

  Follow gcmap on Facebook Follow gcmap on Twitter Follow gcmap on Google+ GCmap on LinkedIn

hCard Microformat

Geo Microformat